Ban Ao Muang, Thailand

4:00 PM +07 on May 27, 2017 (GMT +0700)
Krabi International School | | Change Station

Elev 92 ft 8.12 °N, 98.78 °E | Updated 3 seconds ago

Partly Cloudy
Partly Cloudy
88.5 °F
Feels Like 108 °F
N
0.0
Wind Variable Wind from WSW

Today
High -- | Low -- °F
--% Chance of Precip.
Yesterday
High -- | Low -- °F
Precip. -- in
Pressure 29.74 in
Visibility 5.0 miles
Clouds Scattered Clouds 1800 ft
Mostly Cloudy 10000 ft
Heat Index 108 °F
Dew Point 81 °F
Humidity 80%
Rainfall 0.25 in
Snow Depth Not available.
6:05 AM 6:39 PM
Waxing Crescent, 4% visible
METAR VTSP 270830Z VRB02KT 8000 SCT018 BKN100 30/25 Q1007 NOSIG
Pressure 29.74 in
Visibility 5.0 miles
Clouds Scattered Clouds 1800 ft
Mostly Cloudy 10000 ft
Heat Index 108 °F
Dew Point 81 °F
Humidity 80%
Rainfall 0.25 in
Snow Depth Not available.
6:05 AM 6:39 PM
Waxing Crescent, 4% visible
METAR VTSP 270830Z VRB02KT 8000 SCT018 BKN100 30/25 Q1007 NOSIG

Get Severe Weather Alerts

Thanks for signing up!

Be on the lookout for a verification email in your inbox.

You'll start receiving the daily forecast at 6 AM.

×

10-Day Weather Forecast

No radar image for this location.
×

Almanac

Astronomy

May. 27, 2017 Rise Set
Actual Time
Civil Twilight
Nautical Twilight
Astronomical Twilight
Moon
Length of Visible Light
Length of Day
Tomorrow will be .
, % of the Moon is Illuminated

Today's Extremes

Country Highs Country Lows

Community

WunderPhotos

Category 6

Welcome to Category 6. This is the collective home for Weather Underground's featured writeups by Dr. Jeff Masters (right), Bob Henson (left), Chris Burt, and other regular contributors.

Nearby

Air Quality

  Air Quality AQ Index Pollutant
Not available.

Snow Depth

Station Depth Elevation

Earthquake Activity

City Distance Mag. Time & Date
Minimum magnitude displayed is 2.5.

Coastal Water Temperatures

Place Temperature

Stations

Nearby Weather Stations

Station Location Temp. Windchill Dew Point Humidity Wind Precip. Elev Updated Type